Time;durP1;ratioP1;P1;durP2;ratioP2;P2;SDS_P1;SDS_P2;PMS_P1;PMS_P2;Temp;Humidity;BMP_temperature;BMP_pressure;BME280_temperature;BME280_humidity;BME280_pressure;Samples;Min_cycle;Max_cycle;Signal;HPM_P1;HPM_P2
2021/05/09 00:00:45;;;;;;;6.80;1.10;;;31.00;22.50;;;;;;5063156;28;20029;-73
2021/05/09 00:03:11;;;;;;;8.52;1.70;;;31.00;22.30;;;;;;5059155;28;20049;-72
2021/05/09 00:05:38;;;;;;;12.25;1.80;;;30.90;22.70;;;;;;5061178;28;20342;-73
2021/05/09 00:08:04;;;;;;;3.47;0.93;;;30.90;22.50;;;;;;5066683;28;20115;-72
2021/05/09 00:10:31;;;;;;;4.85;1.65;;;30.80;22.80;;;;;;5061962;28;20054;-73
2021/05/09 00:12:57;;;;;;;5.05;1.38;;;30.90;22.60;;;;;;5064084;28;20031;-72
2021/05/09 00:15:26;;;;;;;3.95;1.60;;;30.60;22.70;;;;;;5062468;28;20059;-72
2021/05/09 00:17:52;;;;;;;12.15;2.35;;;30.60;22.90;;;;;;5059579;28;20016;-72
2021/05/09 00:20:20;;;;;;;10.57;1.90;;;30.50;22.40;;;;;;5060995;28;20033;-74
2021/05/09 00:22:46;;;;;;;4.80;1.70;;;30.50;22.50;;;;;;5065321;28;20027;-72
2021/05/09 00:25:13;;;;;;;4.95;1.35;;;30.50;22.50;;;;;;5063345;28;20021;-72
2021/05/09 00:27:43;;;;;;;3.22;1.27;;;30.40;22.30;;;;;;5061620;28;20464;-72
2021/05/09 00:30:10;;;;;;;3.63;1.80;;;30.50;22.10;;;;;;5062392;28;20304;-73
2021/05/09 00:32:37;;;;;;;4.53;1.23;;;30.40;22.80;;;;;;5062930;28;20035;-74
2021/05/09 00:35:04;;;;;;;6.03;1.35;;;30.30;22.70;;;;;;5063423;28;20462;-75
2021/05/09 00:37:31;;;;;;;4.43;1.40;;;30.30;22.50;;;;;;5064522;28;20029;-74
2021/05/09 00:39:58;;;;;;;7.45;1.80;;;30.30;22.80;;;;;;5067276;28;20047;-74
2021/05/09 00:42:24;;;;;;;3.38;1.00;;;30.30;22.70;;;;;;5066505;28;20493;-73
2021/05/09 00:44:51;;;;;;;6.28;2.08;;;30.40;22.70;;;;;;5064838;28;20055;-74
2021/05/09 00:47:18;;;;;;;10.90;1.50;;;30.30;22.70;;;;;;5062629;28;20036;-74
2021/05/09 00:49:44;;;;;;;5.68;2.53;;;30.10;23.40;;;;;;5067803;28;20417;-73
2021/05/09 00:52:12;;;;;;;4.18;0.98;;;30.20;22.90;;;;;;5068768;28;20127;-75
2021/05/09 00:54:54;;;;;;;6.78;1.58;;;30.20;22.60;;;;;;5064347;28;20043;-73
2021/05/09 00:57:21;;;;;;;;;;;30.50;22.00;;;;;;5062664;28;20064;-74
2021/05/09 00:59:52;;;;;;;5.68;1.38;;;30.40;22.50;;;;;;5058735;28;19919;-76
2021/05/09 01:02:19;;;;;;;4.68;1.52;;;30.10;22.60;;;;;;5063298;28;20076;-74
2021/05/09 01:04:50;;;;;;;10.80;1.90;;;29.90;23.10;;;;;;5052044;28;20801;-74
2021/05/09 01:07:18;;;;;;;6.28;1.73;;;30.00;23.00;;;;;;5061678;28;20025;-73
2021/05/09 01:09:44;;;;;;;10.40;1.92;;;30.00;22.80;;;;;;5062461;28;20051;-73
2021/05/09 01:12:12;;;;;;;9.75;3.10;;;30.00;22.30;;;;;;5063436;28;20036;-73
2021/05/09 01:14:39;;;;;;;7.28;1.35;;;29.70;23.20;;;;;;5061934;28;20028;-73
2021/05/09 01:17:07;;;;;;;4.38;1.25;;;29.60;22.90;;;;;;5060376;28;20037;-73
2021/05/09 01:19:34;;;;;;;6.82;1.42;;;29.50;23.10;;;;;;5063430;28;20021;-73
2021/05/09 01:22:01;;;;;;;6.50;1.98;;;29.50;23.00;;;;;;5064424;28;20013;-73
2021/05/09 01:24:27;;;;;;;8.18;1.60;;;29.50;23.20;;;;;;5064389;28;20024;-73
2021/05/09 01:26:53;;;;;;;6.53;2.00;;;29.50;22.90;;;;;;5060503;28;20021;-73
2021/05/09 01:29:20;;;;;;;4.72;1.55;;;29.50;23.30;;;;;;5063508;28;20055;-73
2021/05/09 01:31:48;;;;;;;7.93;1.58;;;29.50;22.80;;;;;;5062148;28;20028;-73
2021/05/09 01:34:14;;;;;;;5.40;1.60;;;29.40;23.20;;;;;;5063886;28;20028;-73
2021/05/09 01:36:41;;;;;;;9.15;2.10;;;29.40;22.90;;;;;;5061213;28;20144;-74
2021/05/09 01:39:07;;;;;;;4.63;2.15;;;29.30;23.20;;;;;;5054830;28;20029;-73
2021/05/09 01:41:34;;;;;;;4.07;1.25;;;29.30;23.20;;;;;;5056929;28;20526;-74
2021/05/09 01:44:00;;;;;;;5.35;2.03;;;29.30;22.60;;;;;;5063431;28;20033;-73
2021/05/09 01:46:27;;;;;;;6.07;1.95;;;29.20;22.80;;;;;;5064310;28;20025;-73
2021/05/09 01:48:53;;;;;;;7.65;1.50;;;29.10;23.00;;;;;;5062762;28;20430;-73
2021/05/09 01:51:20;;;;;;;8.57;1.88;;;29.00;23.00;;;;;;5055840;28;20214;-74
2021/05/09 01:53:47;;;;;;;6.47;2.10;;;29.00;22.90;;;;;;5059378;28;20048;-73
2021/05/09 01:56:16;;;;;;;3.47;1.33;;;28.80;23.10;;;;;;5061435;28;20039;-73
2021/05/09 01:58:43;;;;;;;5.03;1.10;;;28.60;23.60;;;;;;5061812;28;20048;-73
2021/05/09 02:01:10;;;;;;;9.43;1.73;;;28.70;23.00;;;;;;5061148;28;20024;-74
2021/05/09 02:03:37;;;;;;;6.70;1.60;;;28.60;22.90;;;;;;5062707;28;20029;-73
2021/05/09 02:06:04;;;;;;;4.88;1.30;;;28.50;23.30;;;;;;5057323;28;20028;-73
2021/05/09 02:08:30;;;;;;;2.38;1.30;;;28.40;23.30;;;;;;5059477;28;20043;-73
2021/05/09 02:10:57;;;;;;;6.15;1.45;;;28.20;23.70;;;;;;5060006;28;20033;-73
2021/05/09 02:13:23;;;;;;;6.22;1.40;;;28.20;23.50;;;;;;5059593;28;20343;-74
2021/05/09 02:15:50;;;;;;;11.35;3.50;;;28.00;23.60;;;;;;5058252;28;20126;-74
2021/05/09 02:18:16;;;;;;;6.50;1.45;;;28.10;23.30;;;;;;5057637;28;20025;-74
2021/05/09 02:20:43;;;;;;;21.25;15.90;;;28.00;23.40;;;;;;5059002;28;20109;-74
2021/05/09 02:23:10;;;;;;;8.65;2.10;;;27.80;23.50;;;;;;5058449;28;20120;-73
2021/05/09 02:25:36;;;;;;;16.10;6.35;;;27.70;23.40;;;;;;5056755;28;20033;-73
2021/05/09 02:28:03;;;;;;;4.68;1.13;;;27.40;23.90;;;;;;5061477;28;20033;-75
2021/05/09 02:30:30;;;;;;;7.43;2.05;;;27.40;24.20;;;;;;5057948;28;20035;-75
2021/05/09 02:32:56;;;;;;;10.27;2.60;;;27.30;24.20;;;;;;5060568;28;20442;-75
2021/05/09 02:35:22;;;;;;;7.72;1.35;;;27.30;24.00;;;;;;5064054;28;20071;-74
2021/05/09 02:37:49;;;;;;;14.05;2.42;;;27.10;24.30;;;;;;5063889;28;20021;-77
2021/05/09 02:40:16;;;;;;;7.05;2.17;;;27.20;24.00;;;;;;5062818;28;20025;-77
2021/05/09 02:42:44;;;;;;;6.78;1.80;;;27.10;24.10;;;;;;5081966;28;20031;-76
2021/05/09 02:45:11;;;;;;;7.55;1.95;;;26.90;24.30;;;;;;5074370;28;20343;-78
2021/05/09 02:47:37;;;;;;;4.95;1.50;;;26.80;24.30;;;;;;5062416;28;20381;-77
2021/05/09 02:50:07;;;;;;;9.98;2.97;;;26.80;24.30;;;;;;5060901;28;20028;-78
2021/05/09 02:52:34;;;;;;;9.50;1.88;;;26.60;25.00;;;;;;5058328;28;20031;-75
2021/05/09 02:55:01;;;;;;;8.20;2.78;;;26.50;24.60;;;;;;5061497;28;20043;-80
2021/05/09 02:57:27;;;;;;;6.47;2.03;;;26.30;24.80;;;;;;5059820;28;20434;-76
2021/05/09 02:59:54;;;;;;;6.25;1.63;;;26.20;24.90;;;;;;5058013;28;20163;-74
2021/05/09 03:02:20;;;;;;;6.07;1.75;;;26.00;25.20;;;;;;5061001;28;20116;-75
2021/05/09 03:04:46;;;;;;;9.10;3.00;;;25.90;25.30;;;;;;5062920;28;20462;-75
2021/05/09 03:07:13;;;;;;;8.77;1.70;;;25.90;25.40;;;;;;5060445;28;20091;-74
2021/05/09 03:09:39;;;;;;;12.38;3.05;;;25.70;25.40;;;;;;5062736;28;20029;-72
2021/05/09 03:12:07;;;;;;;8.15;2.13;;;25.60;25.70;;;;;;5061376;28;20032;-74
2021/05/09 03:14:33;;;;;;;8.60;2.15;;;25.50;25.90;;;;;;5062694;28;20354;-74
2021/05/09 03:17:00;;;;;;;12.50;2.42;;;25.40;26.10;;;;;;5059760;28;20452;-74
2021/05/09 03:19:26;;;;;;;6.28;1.25;;;25.30;26.30;;;;;;5060828;28;20086;-72
2021/05/09 03:21:53;;;;;;;12.18;3.80;;;25.10;26.90;;;;;;5061485;28;20070;-75
2021/05/09 03:24:19;;;;;;;7.90;2.08;;;25.00;27.20;;;;;;5061224;28;20051;-75
2021/05/09 03:26:45;;;;;;;9.73;2.17;;;24.90;27.50;;;;;;5057987;28;20056;-72
2021/05/09 03:29:12;;;;;;;12.07;3.05;;;24.70;27.70;;;;;;5063197;28;20060;-73
2021/05/09 03:31:39;;;;;;;12.45;3.63;;;24.60;28.50;;;;;;5061683;28;20052;-72
2021/05/09 03:34:05;;;;;;;13.93;3.13;;;24.50;28.90;;;;;;5063086;28;20046;-73
2021/05/09 03:36:32;;;;;;;13.15;2.65;;;24.50;28.50;;;;;;5062125;28;20024;-73
2021/05/09 03:38:58;;;;;;;7.20;1.98;;;24.30;29.00;;;;;;5062408;28;20373;-73
2021/05/09 03:41:24;;;;;;;12.85;2.92;;;24.10;29.40;;;;;;5061160;28;20437;-75
2021/05/09 03:43:51;;;;;;;16.70;4.07;;;24.00;30.70;;;;;;5061827;28;20025;-73
2021/05/09 03:46:18;;;;;;;13.13;3.03;;;23.70;32.40;;;;;;5061992;28;20028;-73
2021/05/09 03:48:45;;;;;;;15.85;4.43;;;23.40;32.60;;;;;;5060415;28;20021;-75
2021/05/09 03:51:11;;;;;;;15.55;3.40;;;23.30;32.50;;;;;;5059274;28;20120;-75
2021/05/09 03:53:38;;;;;;;17.67;3.10;;;23.10;33.00;;;;;;5059350;28;20045;-74
2021/05/09 03:56:04;;;;;;;14.18;4.55;;;23.10;32.70;;;;;;5062083;28;20075;-73
2021/05/09 03:58:31;;;;;;;13.55;2.80;;;23.00;32.50;;;;;;5058197;28;20083;-73
2021/05/09 04:00:57;;;;;;;9.55;2.83;;;22.90;32.70;;;;;;5060268;28;20035;-73
2021/05/09 04:03:29;;;;;;;18.90;3.85;;;22.80;31.60;;;;;;5061376;28;20023;-73
2021/05/09 04:05:56;;;;;;;14.70;4.13;;;22.80;32.80;;;;;;5054778;28;20074;-73
2021/05/09 04:08:27;;;;;;;17.17;3.22;;;22.70;31.80;;;;;;5059570;28;20443;-73
2021/05/09 04:10:56;;;;;;;12.02;3.75;;;22.70;32.40;;;;;;5060793;28;20450;-73
2021/05/09 04:13:23;;;;;;;10.57;3.25;;;22.60;32.30;;;;;;5060486;28;20025;-73
2021/05/09 04:15:50;;;;;;;12.27;3.58;;;22.50;32.50;;;;;;5052796;28;20052;-72
2021/05/09 04:18:16;;;;;;;8.95;2.83;;;22.40;33.10;;;;;;5060738;28;20123;-72
2021/05/09 04:20:43;;;;;;;7.55;2.58;;;22.30;33.70;;;;;;5060380;28;20403;-71
2021/05/09 04:23:15;;;;;;;12.23;3.00;;;22.20;33.60;;;;;;5062026;28;20035;-72
2021/05/09 04:25:47;;;;;;;10.50;3.63;;;22.10;33.00;;;;;;5060308;28;20023;-72
2021/05/09 04:28:14;;;;;;;15.05;3.30;;;22.10;33.00;;;;;;5063173;28;20096;-72
2021/05/09 04:30:40;;;;;;;12.85;2.67;;;21.90;35.00;;;;;;5064368;28;20079;-72
2021/05/09 04:33:08;;;;;;;11.63;3.13;;;21.80;34.00;;;;;;5070983;28;20021;-72
2021/05/09 04:35:36;;;;;;;13.77;3.53;;;21.80;34.10;;;;;;5077511;28;20047;-73
2021/05/09 04:38:04;;;;;;;11.35;2.83;;;21.70;33.20;;;;;;5070963;28;20037;-71
2021/05/09 04:40:31;;;;;;;8.10;3.22;;;21.70;34.90;;;;;;5061844;28;20584;-72
2021/05/09 04:43:08;;;;;;;8.68;2.97;;;21.60;33.80;;;;;;5062687;28;20055;-70
2021/05/09 04:45:35;;;;;;;13.45;2.90;;;21.60;33.00;;;;;;5057503;28;20020;-70
2021/05/09 04:48:03;;;;;;;9.63;3.22;;;21.50;34.90;;;;;;5059812;28;20013;-70
2021/05/09 04:50:29;;;;;;;15.73;2.70;;;21.40;33.90;;;;;;5063155;28;20020;-70
2021/05/09 04:52:56;;;;;;;8.77;2.90;;;21.30;33.70;;;;;;5061717;28;20029;-70
2021/05/09 04:55:23;;;;;;;8.68;2.45;;;21.30;34.30;;;;;;5060262;28;20052;-70
2021/05/09 04:57:50;;;;;;;14.43;2.90;;;21.20;34.00;;;;;;5060324;28;20119;-69
2021/05/09 05:00:17;;;;;;;17.92;4.05;;;21.10;33.40;;;;;;5062090;28;20021;-70
2021/05/09 05:02:47;;;;;;;5.20;2.42;;;21.10;34.10;;;;;;5055219;28;20082;-70
2021/05/09 05:05:14;;;;;;;10.75;3.10;;;21.10;34.00;;;;;;5061985;28;20029;-70
2021/05/09 05:07:41;;;;;;;10.60;2.25;;;21.00;33.60;;;;;;5063935;28;20370;-69
2021/05/09 05:10:08;;;;;;;6.53;1.75;;;21.00;32.70;;;;;;5064424;28;20353;-69
2021/05/09 05:12:34;;;;;;;9.60;3.97;;;21.00;33.40;;;;;;5063388;28;20037;-69
2021/05/09 05:15:01;;;;;;;7.20;2.92;;;20.80;34.00;;;;;;5064801;28;20082;-69
2021/05/09 05:17:27;;;;;;;8.15;2.58;;;20.80;33.70;;;;;;5064365;28;20040;-69
2021/05/09 05:19:54;;;;;;;13.93;3.75;;;20.70;34.10;;;;;;5064155;28;20362;-69
2021/05/09 05:22:20;;;;;;;10.60;3.35;;;20.70;34.10;;;;;;5063497;28;20450;-69
2021/05/09 05:24:46;;;;;;;5.55;1.65;;;20.60;33.90;;;;;;5064992;28;20028;-69
2021/05/09 05:27:13;;;;;;;8.20;2.22;;;20.60;34.50;;;;;;5064832;28;20025;-69
2021/05/09 05:29:39;;;;;;;7.95;2.33;;;20.50;34.00;;;;;;5062537;28;20047;-70
2021/05/09 05:32:06;;;;;;;6.18;2.53;;;20.50;34.20;;;;;;5062703;28;20045;-70
2021/05/09 05:34:32;;;;;;;9.82;2.20;;;20.50;32.50;;;;;;5060651;28;20044;-70
2021/05/09 05:36:59;;;;;;;8.82;2.33;;;20.50;33.50;;;;;;5064415;28;20112;-69
2021/05/09 05:39:25;;;;;;;9.40;3.08;;;20.50;33.70;;;;;;5061676;28;20097;-70
2021/05/09 05:41:51;;;;;;;9.90;2.65;;;20.50;33.90;;;;;;5061937;28;20057;-70
2021/05/09 05:44:18;;;;;;;9.98;2.80;;;20.50;34.00;;;;;;5064474;28;20369;-70
2021/05/09 05:46:44;;;;;;;10.15;2.38;;;20.50;34.30;;;;;;5062007;28;20060;-70
2021/05/09 05:49:11;;;;;;;9.52;2.05;;;20.50;33.80;;;;;;5061157;28;20020;-69
2021/05/09 05:51:37;;;;;;;7.32;2.90;;;20.40;34.50;;;;;;5061238;28;20358;-69
2021/05/09 05:54:04;;;;;;;6.15;3.20;;;20.40;34.70;;;;;;5063255;28;20072;-69
2021/05/09 05:56:30;;;;;;;15.20;3.90;;;20.40;33.60;;;;;;5061176;28;20025;-69
2021/05/09 05:58:56;;;;;;;11.52;3.00;;;20.40;32.40;;;;;;5063457;28;20103;-69
2021/05/09 06:01:26;;;;;;;10.30;2.80;;;20.60;33.50;;;;;;5060223;28;21063;-69
2021/05/09 06:03:52;;;;;;;10.57;3.33;;;20.60;32.80;;;;;;5060409;28;20021;-69
2021/05/09 06:06:19;;;;;;;11.35;3.13;;;20.60;32.90;;;;;;5062048;28;20035;-70
2021/05/09 06:08:46;;;;;;;5.65;2.35;;;20.60;33.90;;;;;;5061546;28;20064;-70
2021/05/09 06:11:12;;;;;;;7.10;2.75;;;20.60;32.60;;;;;;5063570;28;20032;-69
2021/05/09 06:13:38;;;;;;;13.98;2.95;;;20.50;34.30;;;;;;5062771;28;20032;-69
2021/05/09 06:16:05;;;;;;;12.60;2.67;;;20.50;34.50;;;;;;5061788;28;20024;-69
2021/05/09 06:18:31;;;;;;;7.88;2.05;;;20.60;33.90;;;;;;5060706;28;20033;-69
2021/05/09 06:20:58;;;;;;;5.70;2.03;;;20.50;34.50;;;;;;5061113;28;20059;-69
2021/05/09 06:23:27;;;;;;;8.75;2.00;;;20.60;34.10;;;;;;5065285;28;20044;-69
2021/05/09 06:25:53;;;;;;;8.80;2.45;;;20.50;33.60;;;;;;5069575;28;20017;-70
2021/05/09 06:28:20;;;;;;;13.32;3.20;;;20.50;34.10;;;;;;5070286;28;20031;-70
2021/05/09 06:30:47;;;;;;;9.77;3.35;;;20.50;34.30;;;;;;5063456;28;20361;-70
2021/05/09 06:33:14;;;;;;;6.95;1.98;;;20.50;34.30;;;;;;5061370;28;20078;-70
2021/05/09 06:35:42;;;;;;;7.43;2.05;;;20.40;35.70;;;;;;5063948;28;20037;-70
2021/05/09 06:38:09;;;;;;;5.63;2.00;;;20.30;35.10;;;;;;5061302;28;20016;-69
2021/05/09 06:40:37;;;;;;;9.27;2.92;;;20.20;35.10;;;;;;5063592;28;20465;-69
2021/05/09 06:43:04;;;;;;;7.43;1.92;;;20.20;34.80;;;;;;5060173;28;20078;-70
2021/05/09 06:45:33;;;;;;;15.05;3.08;;;20.10;35.80;;;;;;5061922;28;20090;-70
2021/05/09 06:48:02;;;;;;;13.82;3.33;;;20.00;35.50;;;;;;5061482;28;20062;-70
2021/05/09 06:50:31;;;;;;;6.95;2.13;;;19.90;34.90;;;;;;5063103;28;20029;-70
2021/05/09 06:52:58;;;;;;;10.40;2.55;;;19.90;35.60;;;;;;5060615;28;20466;-69
2021/05/09 06:55:25;;;;;;;16.80;2.70;;;19.80;36.10;;;;;;5062411;28;20032;-70
2021/05/09 06:57:52;;;;;;;9.93;3.63;;;19.70;35.90;;;;;;5061116;28;20107;-70
2021/05/09 07:00:20;;;;;;;11.93;2.97;;;19.70;34.50;;;;;;5064134;28;20021;-70
2021/05/09 07:02:48;;;;;;;8.30;2.00;;;19.70;34.30;;;;;;5043441;28;20174;-69
2021/05/09 07:05:14;;;;;;;13.88;3.35;;;19.80;34.70;;;;;;5057483;28;20020;-69
2021/05/09 07:07:56;;;;;;;16.20;4.15;;;20.00;35.50;;;;;;5060782;28;20108;-70
2021/05/09 07:10:27;;;;;;;13.18;3.58;;;20.00;35.00;;;;;;5059989;28;20024;-70
2021/05/09 07:12:56;;;;;;;14.90;3.40;;;19.90;36.00;;;;;;5061432;28;20029;-70
2021/05/09 07:15:40;;;;;;;10.65;2.42;;;19.80;34.80;;;;;;5060881;28;20026;-69
2021/05/09 07:18:19;;;;;;;12.48;3.38;;;19.90;36.10;;;;;;5062472;28;20033;-70
2021/05/09 07:20:51;;;;;;;13.00;3.03;;;19.90;35.90;;;;;;5062173;28;20110;-72
2021/05/09 07:23:17;;;;;;;8.77;2.97;;;19.80;36.00;;;;;;5058712;28;20514;-70
2021/05/09 07:25:44;;;;;;;6.07;2.08;;;19.70;36.10;;;;;;5061450;28;20016;-70
2021/05/09 07:28:12;;;;;;;10.20;3.40;;;19.60;36.60;;;;;;5061059;28;20473;-69
2021/05/09 07:30:41;;;;;;;17.92;4.07;;;19.60;35.90;;;;;;5060178;28;20040;-70
2021/05/09 07:33:08;;;;;;;11.32;2.40;;;19.50;36.80;;;;;;5057920;28;20134;-69
2021/05/09 07:35:35;;;;;;;12.13;2.75;;;19.50;36.50;;;;;;5056538;28;20035;-69
2021/05/09 07:38:06;;;;;;;12.52;3.58;;;19.50;35.80;;;;;;5059086;28;20040;-69
2021/05/09 07:40:33;;;;;;;13.13;2.60;;;19.40;36.50;;;;;;5059134;28;20020;-70
2021/05/09 07:42:59;;;;;;;14.65;3.05;;;19.30;36.50;;;;;;5059299;28;20063;-69
2021/05/09 07:45:26;;;;;;;9.80;3.15;;;19.30;36.20;;;;;;5059657;28;20029;-69
2021/05/09 07:47:52;;;;;;;12.13;3.33;;;19.30;35.70;;;;;;5060595;28;20461;-69
2021/05/09 07:50:21;;;;;;;11.93;3.10;;;19.30;37.20;;;;;;5061241;28;20466;-69
2021/05/09 07:52:49;;;;;;;10.23;3.80;;;19.30;36.80;;;;;;5058895;28;20127;-69
2021/05/09 07:55:16;;;;;;;8.82;2.75;;;19.30;36.60;;;;;;5061668;28;20031;-69
2021/05/09 07:57:44;;;;;;;15.27;3.33;;;19.20;36.30;;;;;;5059124;28;20028;-69
2021/05/09 08:00:13;;;;;;;12.38;3.03;;;19.20;35.90;;;;;;5061133;28;20043;-69
2021/05/09 08:02:40;;;;;;;11.20;2.65;;;19.20;37.50;;;;;;5062194;28;20078;-69
2021/05/09 08:05:07;;;;;;;9.68;2.22;;;19.10;37.60;;;;;;5064552;28;20031;-69
2021/05/09 08:07:34;;;;;;;11.90;3.03;;;19.00;37.70;;;;;;5063697;28;20047;-69
2021/05/09 08:10:00;;;;;;;8.63;2.00;;;19.00;37.70;;;;;;5063114;28;20500;-69
2021/05/09 08:12:27;;;;;;;9.45;2.90;;;19.10;37.90;;;;;;5064238;28;20456;-69
2021/05/09 08:14:53;;;;;;;7.40;2.20;;;19.10;36.70;;;;;;5063659;28;20366;-69
2021/05/09 08:17:20;;;;;;;14.20;2.95;;;19.10;36.20;;;;;;5063530;28;20097;-69
2021/05/09 08:19:46;;;;;;;12.48;3.20;;;19.10;37.40;;;;;;5064027;28;20489;-69
2021/05/09 08:22:13;;;;;;;13.25;2.63;;;19.10;36.90;;;;;;5064623;28;20107;-69
2021/05/09 08:24:39;;;;;;;16.00;2.78;;;19.10;37.70;;;;;;5065773;28;20895;-69
2021/05/09 08:27:05;;;;;;;11.80;4.18;;;18.90;39.10;;;;;;5063441;28;20575;-69
2021/05/09 08:29:32;;;;;;;7.65;3.15;;;18.90;37.90;;;;;;5062170;28;20082;-69
2021/05/09 08:31:58;;;;;;;11.98;3.53;;;18.80;37.70;;;;;;5064160;28;20410;-69
2021/05/09 08:34:25;;;;;;;14.48;3.22;;;18.80;37.40;;;;;;5063684;28;20369;-69
2021/05/09 08:36:51;;;;;;;13.15;2.83;;;18.70;37.20;;;;;;5061074;28;20029;-69
2021/05/09 08:39:18;;;;;;;12.20;3.17;;;18.70;37.10;;;;;;5062218;28;20430;-70
2021/05/09 08:41:46;;;;;;;12.55;2.65;;;18.70;37.90;;;;;;5064339;28;20056;-70
2021/05/09 08:44:13;;;;;;;17.30;3.40;;;18.70;38.30;;;;;;5063978;28;20017;-69
2021/05/09 08:46:41;;;;;;;16.05;3.42;;;18.70;38.30;;;;;;5065091;28;20016;-70
2021/05/09 08:49:09;;;;;;;16.45;3.38;;;18.60;38.20;;;;;;5062039;28;20128;-69
2021/05/09 08:51:35;;;;;;;23.63;3.15;;;18.50;38.10;;;;;;5064742;28;20112;-69
2021/05/09 08:54:02;;;;;;;25.60;4.60;;;18.40;38.10;;;;;;5064124;28;20094;-69
2021/05/09 08:56:28;;;;;;;13.27;3.05;;;18.50;39.30;;;;;;5062490;28;20061;-69
2021/05/09 08:58:55;;;;;;;12.20;3.22;;;18.30;38.40;;;;;;5063389;28;20038;-69
2021/05/09 09:01:28;;;;;;;18.67;3.38;;;18.30;39.80;;;;;;5063397;28;20071;-69
2021/05/09 09:03:55;;;;;;;12.25;3.53;;;18.30;39.50;;;;;;5064272;28;20025;-69
2021/05/09 09:06:40;;;;;;;16.80;3.78;;;18.30;39.60;;;;;;5062842;28;20028;-69
2021/05/09 09:09:06;;;;;;;14.35;3.17;;;18.30;40.70;;;;;;5061480;28;20020;-69
2021/05/09 09:11:33;;;;;;;19.33;4.13;;;18.20;39.60;;;;;;5065033;28;20024;-69
2021/05/09 09:14:09;;;;;;;9.88;2.47;;;18.20;39.80;;;;;;5061803;28;20036;-69
2021/05/09 09:16:35;;;;;;;9.05;2.63;;;18.10;39.80;;;;;;5064007;28;20036;-69
2021/05/09 09:19:13;;;;;;;31.15;5.43;;;18.00;40.00;;;;;;5062329;28;20358;-69
2021/05/09 09:21:41;;;;;;;13.48;2.88;;;18.00;40.00;;;;;;5063762;28;20374;-69
2021/05/09 09:24:13;;;;;;;10.15;3.75;;;17.90;39.90;;;;;;5063076;28;20063;-69
2021/05/09 09:26:41;;;;;;;9.57;3.92;;;17.90;40.70;;;;;;5063511;28;20028;-69
2021/05/09 09:29:36;;;;;;;10.88;3.42;;;17.90;40.90;;;;;;5060871;28;20115;-69
2021/05/09 09:32:09;;;;;;;11.30;4.60;;;17.90;40.60;;;;;;5053619;28;20052;-69
2021/05/09 09:34:43;;;;;;;8.57;3.50;;;17.80;40.80;;;;;;5062660;28;20086;-69
2021/05/09 09:37:11;;;;;;;9.05;2.35;;;17.80;41.30;;;;;;5061925;28;20037;-69
2021/05/09 09:40:04;;;;;;;16.38;4.03;;;17.80;40.30;;;;;;5061391;28;20111;-69
2021/05/09 09:42:44;;;;;;;;;;;17.70;40.10;;;;;;5060669;28;20490;-69
2021/05/09 09:45:14;;;;;;;15.27;3.25;;;17.90;41.30;;;;;;5062751;28;19966;-69
2021/05/09 09:48:01;;;;;;;12.43;4.28;;;17.90;41.10;;;;;;5059383;28;20057;-69
2021/05/09 09:50:38;;;;;;;14.52;3.35;;;17.80;41.80;;;;;;5060735;28;20032;-69
2021/05/09 09:53:38;;;;;;;12.50;2.58;;;17.90;41.80;;;;;;5060287;28;20402;-69
2021/05/09 09:56:13;;;;;;;12.77;3.72;;;17.80;41.10;;;;;;5054643;28;20040;-69
2021/05/09 09:58:55;;;;;;;13.23;2.70;;;17.70;40.80;;;;;;5061804;28;20025;-69
2021/05/09 10:01:25;;;;;;;18.83;4.25;;;17.60;40.90;;;;;;5062501;28;20094;-69
2021/05/09 10:03:53;;;;;;;15.38;3.33;;;17.50;41.20;;;;;;5063635;28;20446;-69
2021/05/09 10:06:21;;;;;;;18.27;3.88;;;17.50;41.60;;;;;;5062130;28;20093;-69
2021/05/09 10:08:47;;;;;;;9.95;2.92;;;17.60;42.50;;;;;;5061038;28;20025;-69
2021/05/09 10:11:15;;;;;;;13.20;3.22;;;17.50;41.50;;;;;;5062731;28;20397;-69
2021/05/09 10:13:41;;;;;;;12.05;3.00;;;17.40;41.50;;;;;;5064092;28;20370;-69
2021/05/09 10:16:09;;;;;;;13.57;3.25;;;17.40;41.70;;;;;;5058571;28;20055;-69
2021/05/09 10:18:39;;;;;;;13.18;3.17;;;17.40;41.80;;;;;;5060611;28;20055;-69
2021/05/09 10:21:06;;;;;;;18.70;3.83;;;17.40;41.60;;;;;;5062188;28;20029;-70
2021/05/09 10:23:32;;;;;;;14.00;3.60;;;17.30;42.50;;;;;;5066960;28;20033;-69
2021/05/09 10:26:00;;;;;;;19.15;3.30;;;17.20;41.50;;;;;;5060330;28;20021;-69
2021/05/09 10:28:39;;;;;;;21.65;3.67;;;17.20;41.60;;;;;;5060373;28;20029;-69
2021/05/09 10:31:07;;;;;;;13.23;3.30;;;17.20;42.60;;;;;;5061366;28;20050;-69
2021/05/09 10:33:42;;;;;;;16.83;2.90;;;17.30;42.40;;;;;;5059868;28;20037;-69
2021/05/09 10:36:34;;;;;;;12.32;2.70;;;17.20;42.30;;;;;;5062939;28;20079;-69
2021/05/09 10:39:07;;;;;;;10.73;2.60;;;17.00;42.00;;;;;;5058959;28;20028;-69
2021/05/09 10:41:54;;;;;;;15.35;3.38;;;17.00;42.90;;;;;;5062443;28;20066;-69
2021/05/09 10:44:48;;;;;;;10.75;3.65;;;16.90;42.80;;;;;;5062846;28;20037;-69
2021/05/09 10:47:19;;;;;;;9.75;3.40;;;16.90;43.40;;;;;;5059976;28;20035;-69
2021/05/09 10:50:20;;;;;;;14.38;2.60;;;16.80;44.00;;;;;;5060228;28;20083;-69
2021/05/09 10:52:48;;;;;;;10.90;3.90;;;16.70;42.80;;;;;;5062153;28;20051;-69
2021/05/09 10:55:43;;;;;;;14.30;2.67;;;16.80;43.50;;;;;;5062197;28;20044;-69
2021/05/09 10:58:12;;;;;;;13.70;3.65;;;16.70;42.10;;;;;;5061156;28;20477;-69
2021/05/09 11:00:59;;;;;;;16.48;3.25;;;16.80;44.20;;;;;;5062369;28;20111;-69
2021/05/09 11:03:38;;;;;;;13.95;3.63;;;16.90;43.50;;;;;;5062521;28;20430;-69
2021/05/09 11:06:08;;;;;;;21.10;4.25;;;16.80;42.90;;;;;;5062166;28;20119;-69
2021/05/09 11:08:52;;;;;;;11.93;3.42;;;16.90;43.60;;;;;;5062128;28;20040;-69
2021/05/09 11:11:22;;;;;;;14.48;2.53;;;16.90;42.70;;;;;;5063032;28;20037;-69
2021/05/09 11:14:13;;;;;;;14.07;3.40;;;16.90;44.10;;;;;;5063265;28;20032;-69
2021/05/09 11:16:56;;;;;;;8.65;3.80;;;16.90;42.90;;;;;;5061850;28;20106;-69
2021/05/09 11:19:25;;;;;;;12.13;3.78;;;16.80;43.20;;;;;;5062343;28;20387;-69
2021/05/09 11:21:55;;;;;;;14.63;2.85;;;16.70;42.90;;;;;;5062602;28;20029;-69
2021/05/09 11:24:26;;;;;;;16.77;4.25;;;16.70;44.10;;;;;;5062730;28;20100;-69
2021/05/09 11:26:57;;;;;;;17.98;3.75;;;16.60;44.10;;;;;;5061381;28;20028;-69
2021/05/09 11:29:28;;;;;;;20.58;4.47;;;16.60;44.00;;;;;;5058841;28;20028;-69
2021/05/09 11:31:57;;;;;;;21.75;3.03;;;16.60;43.90;;;;;;5061057;28;20040;-68
2021/05/09 11:34:26;;;;;;;9.57;3.65;;;16.70;43.80;;;;;;5061245;28;20028;-69
2021/05/09 11:36:57;;;;;;;13.23;3.92;;;16.60;44.40;;;;;;5058864;28;20045;-69
2021/05/09 11:39:39;;;;;;;10.30;3.05;;;16.60;44.40;;;;;;5057610;28;20048;-69
2021/05/09 11:42:15;;;;;;;13.60;3.77;;;16.60;43.70;;;;;;5058726;28;20024;-69
2021/05/09 11:44:57;;;;;;;8.43;2.33;;;16.60;44.50;;;;;;5060325;28;20270;-69
2021/05/09 11:47:28;;;;;;;16.80;2.92;;;16.60;43.70;;;;;;5061291;28;20107;-69
2021/05/09 11:50:03;;;;;;;11.35;2.90;;;16.50;44.50;;;;;;5061415;28;20120;-69
2021/05/09 11:52:40;;;;;;;6.15;2.30;;;16.40;44.90;;;;;;5059020;28;20059;-68
2021/05/09 11:55:11;;;;;;;11.40;4.05;;;16.30;44.70;;;;;;5060673;28;20033;-68
2021/05/09 11:57:38;;;;;;;9.10;2.65;;;16.20;44.80;;;;;;5060358;28;20028;-69
2021/05/09 12:00:17;;;;;;;10.40;3.20;;;16.20;45.30;;;;;;5059117;28;20067;-68
2021/05/09 12:02:47;;;;;;;9.95;2.25;;;16.10;45.30;;;;;;5060143;28;20375;-68
2021/05/09 12:05:19;;;;;;;10.70;3.22;;;16.10;45.40;;;;;;5060196;28;20021;-68
2021/05/09 12:07:49;;;;;;;10.75;2.70;;;16.10;45.60;;;;;;5060486;28;21100;-68
2021/05/09 12:10:25;;;;;;;7.82;2.70;;;16.00;45.80;;;;;;5057282;28;20381;-68
2021/05/09 12:12:56;;;;;;;14.55;2.45;;;15.90;45.50;;;;;;5059812;28;20056;-69
2021/05/09 12:15:23;;;;;;;8.35;2.13;;;15.80;45.80;;;;;;5060039;28;20025;-69
2021/05/09 12:17:55;;;;;;;8.77;2.17;;;15.80;45.70;;;;;;5061927;28;20654;-68
2021/05/09 12:20:27;;;;;;;7.22;2.90;;;15.80;45.50;;;;;;5062612;28;20366;-68
2021/05/09 12:22:54;;;;;;;12.73;4.95;;;15.70;46.00;;;;;;5061740;28;20036;-68
2021/05/09 12:25:40;;;;;;;7.32;2.45;;;15.70;45.80;;;;;;5060689;28;20039;-68
2021/05/09 12:28:29;;;;;;;8.13;2.42;;;15.60;44.00;;;;;;5057640;28;20036;-68
2021/05/09 12:31:06;;;;;;;11.13;3.35;;;15.60;45.50;;;;;;5060479;28;20111;-70
2021/05/09 12:33:33;;;;;;;12.52;2.47;;;15.60;45.00;;;;;;5058650;28;20029;-70
2021/05/09 12:36:10;;;;;;;6.00;2.42;;;15.80;43.70;;;;;;5060764;28;20052;-69
2021/05/09 12:38:37;;;;;;;5.35;2.38;;;15.80;44.00;;;;;;5057855;28;20025;-69
2021/05/09 12:41:13;;;;;;;8.85;3.80;;;15.70;45.90;;;;;;5060930;28;20032;-69
2021/05/09 12:43:44;;;;;;;8.35;3.05;;;15.60;47.30;;;;;;5059565;28;20024;-69
2021/05/09 12:46:42;;;;;;;8.23;2.90;;;15.60;46.20;;;;;;5060714;28;20028;-69
2021/05/09 12:49:18;;;;;;;14.88;2.97;;;15.50;45.40;;;;;;5060312;28;20021;-69
2021/05/09 12:52:05;;;;;;;4.63;2.08;;;15.50;46.30;;;;;;5064444;28;20154;-69
2021/05/09 12:54:46;;;;;;;15.05;3.55;;;15.50;47.20;;;;;;5062612;28;20091;-69